createdAt,value
2023-04-27T00:01:42.432Z,85218.81
2023-04-27T00:04:09.633Z,85272.88
2023-04-27T00:06:37.015Z,85305.75
2023-04-27T00:09:04.716Z,85301.59
2023-04-27T00:11:32.561Z,85281.06
2023-04-27T00:13:59.744Z,85227.72
2023-04-27T00:16:26.882Z,85235.88
2023-04-27T00:18:54.256Z,85195.53
2023-04-27T00:21:21.611Z,85243.47
2023-04-27T00:23:48.643Z,85205.84
2023-04-27T00:26:15.760Z,85272.88
2023-04-27T00:28:45.560Z,85234.56
2023-04-27T00:31:12.777Z,85281.03
2023-04-27T00:33:39.883Z,85265.97
2023-04-27T00:36:07.356Z,85226.38
2023-04-27T00:38:34.358Z,85036.28
2023-04-27T00:41:05.769Z,85247.53
2023-04-27T00:43:33.478Z,85315.31
2023-04-27T00:46:01.117Z,85281.75
2023-04-27T00:48:28.719Z,85311.91
2023-04-27T00:50:56.136Z,85307.09
2023-04-27T00:53:23.227Z,85317.41
2023-04-27T00:55:50.253Z,85301.66
2023-04-27T00:58:17.366Z,85294.13
2023-04-27T01:00:44.371Z,85314.00
2023-04-27T01:03:11.626Z,85302.38
2023-04-27T01:05:39.380Z,85252.38
2023-04-27T01:08:08.232Z,85294.84
2023-04-27T01:10:35.350Z,85260.63
2023-04-27T01:13:02.516Z,85283.91
2023-04-27T01:15:31.436Z,85251.06
2023-04-27T01:18:02.280Z,85331.84
2023-04-27T01:20:30.611Z,85312.69
2023-04-27T01:22:58.694Z,85273.66
2023-04-27T01:25:26.354Z,85222.31
2023-04-27T01:27:54.612Z,85279.81
2023-04-27T01:30:25.171Z,85201.78
2023-04-27T01:32:52.275Z,85282.56
2023-04-27T01:35:19.871Z,85338.00
2023-04-27T01:37:47.050Z,85343.47
2023-04-27T01:40:14.467Z,85267.47
2023-04-27T01:42:41.494Z,85293.50
2023-04-27T01:45:09.669Z,85347.59
2023-04-27T01:47:37.915Z,85349.66
2023-04-27T01:50:06.417Z,85251.06
2023-04-27T01:52:33.666Z,85320.91
2023-04-27T01:55:02.822Z,85229.16
2023-04-27T01:57:29.893Z,85353.09
2023-04-27T01:59:57.120Z,85279.81
2023-04-27T02:02:24.536Z,85353.78
2023-04-27T02:04:52.057Z,85290.78
2023-04-27T02:07:19.660Z,85244.94
2023-04-27T02:09:46.909Z,85353.78
2023-04-27T02:12:14.459Z,85307.25
2023-04-27T02:14:41.451Z,85272.97
2023-04-27T02:17:08.465Z,85355.19
2023-04-27T02:19:36.464Z,85279.16
2023-04-27T02:22:04.211Z,85355.19
2023-04-27T02:24:31.341Z,85303.13
2023-04-27T02:26:58.423Z,85317.53
2023-04-27T02:29:30.587Z,85296.28
2023-04-27T02:31:58.513Z,85271.63
2023-04-27T02:34:25.716Z,85353.16
2023-04-27T02:36:53.089Z,85321.63
2023-04-27T02:39:20.249Z,85290.09
2023-04-27T02:41:47.198Z,85268.19
2023-04-27T02:44:15.763Z,85360.66
2023-04-27T02:46:42.887Z,85343.56
2023-04-27T02:49:10.083Z,85360.00
2023-04-27T02:51:37.029Z,85358.63
2023-04-27T02:54:04.402Z,85370.97
2023-04-27T02:56:31.700Z,85355.19
2023-04-27T02:58:59.198Z,85326.41
2023-04-27T03:01:26.598Z,85372.31
2023-04-27T03:03:54.020Z,85303.81
2023-04-27T03:06:21.196Z,85301.75
2023-04-27T03:08:48.191Z,85377.13
2023-04-27T03:11:15.276Z,85370.94
2023-04-27T03:13:42.366Z,85375.09
2023-04-27T03:16:12.394Z,85368.91
2023-04-27T03:18:40.185Z,85274.34
2023-04-27T03:21:10.928Z,85373.69
2023-04-27T03:23:38.312Z,85350.41
2023-04-27T03:26:09.935Z,85373.69
2023-04-27T03:28:37.858Z,85377.13
2023-04-27T03:31:06.526Z,85353.81
2023-04-27T03:33:34.143Z,85361.34
2023-04-27T03:36:01.354Z,85336.66
2023-04-27T03:38:29.160Z,85386.69
2023-04-27T03:40:56.798Z,85331.81
2023-04-27T03:43:25.300Z,85371.59
2023-04-27T03:45:53.275Z,85230.44
2023-04-27T03:48:21.172Z,85402.44
2023-04-27T03:50:49.116Z,85336.63
2023-04-27T03:53:16.365Z,85362.66
2023-04-27T03:55:46.822Z,85357.88
2023-04-27T03:58:14.699Z,85339.38
2023-04-27T04:01:00.669Z,85309.91
2023-04-27T04:03:28.501Z,85316.72
2023-04-27T04:05:56.029Z,85401.75
2023-04-27T04:08:23.554Z,85329.09
2023-04-27T04:10:51.095Z,85415.38
2023-04-27T04:13:18.200Z,85385.88
2023-04-27T04:15:45.906Z,85355.00
2023-04-27T04:18:13.038Z,85222.00
2023-04-27T04:20:40.180Z,85229.53
2023-04-27T04:23:33.127Z,85416.75
2023-04-27T04:26:02.401Z,85342.66
2023-04-27T04:28:34.275Z,85361.81
2023-04-27T04:31:02.318Z,85257.63
2023-04-27T04:33:29.496Z,85414.66
2023-04-27T04:35:56.558Z,85187.00
2023-04-27T04:38:24.068Z,85360.44
2023-04-27T04:40:53.070Z,85332.34
2023-04-27T04:43:20.228Z,85363.19
2023-04-27T04:45:48.028Z,85396.81
2023-04-27T04:48:16.780Z,85426.97
2023-04-27T04:50:45.618Z,85326.19
2023-04-27T04:53:14.653Z,85373.47
2023-04-27T04:55:42.713Z,85430.41
2023-04-27T04:58:10.352Z,85376.91
2023-04-27T05:00:37.354Z,85374.16
2023-04-27T05:03:04.642Z,85429.75
2023-04-27T05:05:31.954Z,85425.69
2023-04-27T05:07:59.010Z,85400.28
2023-04-27T05:10:26.115Z,85374.22
2023-04-27T05:12:53.481Z,85378.31
2023-04-27T05:15:21.293Z,85204.22
2023-04-27T05:17:48.355Z,85409.91
2023-04-27T05:20:16.144Z,85441.47
2023-04-27T05:22:43.272Z,85442.88
2023-04-27T05:25:10.300Z,85438.75
2023-04-27T05:27:37.322Z,85338.59
2023-04-27T05:30:04.890Z,85443.50
2023-04-27T05:32:33.940Z,85382.47
2023-04-27T05:35:01.184Z,85432.56
2023-04-27T05:37:28.220Z,85260.41
2023-04-27T05:39:55.364Z,85440.09
2023-04-27T05:42:22.623Z,85379.03
2023-04-27T05:44:49.960Z,85403.00
2023-04-27T05:47:17.126Z,85449.69
2023-04-27T05:49:44.325Z,85456.50
2023-04-27T05:52:11.427Z,85269.94
2023-04-27T05:54:38.434Z,85337.13
2023-04-27T05:57:06.345Z,85293.91
2023-04-27T05:59:33.696Z,85250.06
2023-04-27T06:02:00.819Z,85413.97
2023-04-27T06:04:28.027Z,85466.84
2023-04-27T06:06:55.227Z,85433.88
2023-04-27T06:09:22.283Z,85456.53
2023-04-27T06:11:49.318Z,85438.63
2023-04-27T06:14:24.033Z,85475.75
2023-04-27T06:16:51.319Z,85475.75
2023-04-27T06:19:18.480Z,85436.66
2023-04-27T06:21:45.702Z,85445.53
2023-04-27T06:24:12.831Z,85422.22
2023-04-27T06:26:39.786Z,85356.38
2023-04-27T06:29:08.222Z,85301.47
2023-04-27T06:31:35.390Z,85421.56
2023-04-27T06:34:02.652Z,85462.06
2023-04-27T06:36:29.724Z,85449.72
2023-04-27T06:38:56.864Z,85379.78
2023-04-27T06:41:26.191Z,85477.19
2023-04-27T06:43:54.270Z,85427.81
2023-04-27T06:46:21.469Z,85483.38
2023-04-27T06:48:49.740Z,85441.50
2023-04-27T06:51:16.757Z,85404.44
2023-04-27T06:53:43.915Z,85490.91
2023-04-27T06:56:12.441Z,85436.00
2023-04-27T06:58:39.467Z,85493.66
2023-04-27T07:01:07.158Z,85487.50
2023-04-27T07:03:37.407Z,85456.59
2023-04-27T07:06:04.715Z,85458.69
2023-04-27T07:08:31.762Z,85441.53
2023-04-27T07:10:58.795Z,85463.50
2023-04-27T07:13:25.893Z,85449.06
2023-04-27T07:15:59.251Z,85455.25
2023-04-27T07:18:28.248Z,85496.44
2023-04-27T07:20:56.525Z,85506.03
2023-04-27T07:23:24.009Z,85452.50
2023-04-27T07:25:51.087Z,85512.91
2023-04-27T07:28:18.659Z,85512.88
2023-04-27T07:30:45.919Z,85510.84
2023-04-27T07:33:13.290Z,85447.06
2023-04-27T07:35:42.119Z,85468.31
2023-04-27T07:38:09.177Z,85453.91
2023-04-27T07:40:36.605Z,85482.72
2023-04-27T07:43:05.722Z,85512.91
2023-04-27T07:45:33.120Z,85477.22
2023-04-27T07:48:02.458Z,85473.09
2023-04-27T07:50:30.303Z,85508.06
2023-04-27T07:52:58.077Z,85488.19
2023-04-27T07:55:26.551Z,85466.25
2023-04-27T07:57:54.306Z,85480.66
2023-04-27T08:00:22.483Z,85507.41
2023-04-27T08:02:50.947Z,85473.13
2023-04-27T08:05:18.988Z,85460.78
2023-04-27T08:07:46.958Z,85519.03
2023-04-27T08:10:15.203Z,85438.81
2023-04-27T08:12:42.434Z,85486.09
2023-04-27T08:15:11.297Z,85473.09
2023-04-27T08:17:41.152Z,85507.38
2023-04-27T08:20:12.667Z,85525.19
2023-04-27T08:22:43.058Z,85518.97
2023-04-27T08:25:10.350Z,85451.13
2023-04-27T08:27:41.115Z,85525.84
2023-04-27T08:30:08.718Z,85462.75
2023-04-27T08:32:35.903Z,85468.22
2023-04-27T08:35:03.493Z,85499.13
2023-04-27T08:37:30.764Z,85498.41
2023-04-27T08:39:57.814Z,85505.28
2023-04-27T08:42:25.102Z,85479.16
2023-04-27T08:44:59.622Z,85446.94
2023-04-27T08:47:38.999Z,85502.44
2023-04-27T08:50:09.797Z,85516.16
2023-04-27T08:52:37.981Z,85499.66
2023-04-27T08:55:07.617Z,85512.69
2023-04-27T08:57:34.887Z,85486.56
2023-04-27T09:00:02.298Z,85509.78
2023-04-27T09:02:29.981Z,85459.03
2023-04-27T09:04:57.459Z,85438.38
2023-04-27T09:07:26.229Z,85469.81
2023-04-27T09:10:04.313Z,85460.88
2023-04-27T09:12:31.328Z,85436.75
2023-04-27T09:14:59.600Z,85501.03
2023-04-27T09:17:30.818Z,85472.28
2023-04-27T09:20:13.833Z,85435.25
2023-04-27T09:23:00.039Z,85477.56
2023-04-27T09:25:33.179Z,85510.25
2023-04-27T09:28:01.381Z,85474.63
2023-04-27T09:30:29.757Z,85512.78
2023-04-27T09:33:02.102Z,85519.59
2023-04-27T09:35:33.580Z,85509.44
2023-04-27T09:38:01.846Z,85489.47
2023-04-27T09:40:31.547Z,85481.31
2023-04-27T09:43:01.868Z,85519.69
2023-04-27T09:45:29.467Z,85523.81
2023-04-27T09:47:56.636Z,85517.03
2023-04-27T09:50:23.684Z,85521.16
2023-04-27T09:52:50.664Z,85458.16
2023-04-27T09:55:27.604Z,85534.16
2023-04-27T09:58:19.197Z,85526.66
2023-04-27T10:01:20.831Z,85539.78
2023-04-27T10:04:09.708Z,85530.09
2023-04-27T10:06:39.815Z,85524.69
2023-04-27T10:09:07.621Z,85511.69
2023-04-27T10:11:44.870Z,85491.84
2023-04-27T10:14:18.409Z,85500.75
2023-04-27T10:16:56.792Z,85523.41
2023-04-27T10:19:25.879Z,85533.56
2023-04-27T10:22:00.716Z,85526.59
2023-04-27T10:24:33.458Z,85526.59
2023-04-27T10:27:03.453Z,85524.50
2023-04-27T10:29:37.078Z,85538.22
2023-04-27T10:32:13.185Z,85534.72
2023-04-27T10:34:43.262Z,85470.44
2023-04-27T10:37:12.149Z,85537.41
2023-04-27T10:39:47.661Z,85537.97
2023-04-27T10:42:28.660Z,85487.28
2023-04-27T10:45:01.523Z,85523.63
2023-04-27T10:47:39.638Z,85538.13
2023-04-27T10:50:11.679Z,85456.56
2023-04-27T10:52:43.057Z,85490.00
2023-04-27T10:55:17.943Z,85477.03
2023-04-27T10:57:52.217Z,85548.22
2023-04-27T11:00:44.350Z,85507.78
2023-04-27T11:03:23.439Z,85474.25
2023-04-27T11:06:00.869Z,85509.34
2023-04-27T11:08:27.924Z,85425.03
2023-04-27T11:10:55.236Z,85426.44
2023-04-27T11:13:33.133Z,85528.88
2023-04-27T11:16:00.586Z,85509.81
2023-04-27T11:18:31.681Z,85523.38
2023-04-27T11:21:10.545Z,85406.41
2023-04-27T11:23:40.885Z,85550.72
2023-04-27T11:26:18.230Z,85542.44
2023-04-27T11:29:09.843Z,85550.59
2023-04-27T11:31:40.969Z,85546.44
2023-04-27T11:34:08.539Z,85532.81
2023-04-27T11:36:36.248Z,85335.97
2023-04-27T11:39:06.608Z,85432.78
2023-04-27T11:41:35.402Z,85523.09
2023-04-27T11:44:10.105Z,85493.00
2023-04-27T11:46:38.287Z,85485.97
2023-04-27T11:49:09.063Z,85511.03
2023-04-27T11:51:36.799Z,85517.75
2023-04-27T11:54:07.587Z,85552.38
2023-04-27T11:56:42.602Z,85526.31
2023-04-27T11:59:19.469Z,85544.53
2023-04-27T12:01:47.015Z,85422.22
2023-04-27T12:04:14.587Z,85487.59
2023-04-27T12:06:44.050Z,85495.72
2023-04-27T12:09:11.455Z,85553.09
2023-04-27T12:11:39.839Z,85500.91
2023-04-27T12:14:07.430Z,85519.50
2023-04-27T12:16:35.889Z,85363.00
2023-04-27T12:19:03.277Z,85347.13
2023-04-27T12:21:32.374Z,85515.06
2023-04-27T12:23:59.513Z,85538.72
2023-04-27T12:26:26.851Z,85485.34
2023-04-27T12:28:53.863Z,85361.13
2023-04-27T12:31:26.899Z,85531.22
2023-04-27T12:33:54.875Z,85395.91
2023-04-27T12:36:21.923Z,85377.53
2023-04-27T12:38:49.012Z,85529.22
2023-04-27T12:41:16.049Z,85448.72
2023-04-27T12:43:43.832Z,85537.81
2023-04-27T12:46:11.781Z,85514.06
2023-04-27T12:48:38.965Z,85483.88
2023-04-27T12:51:07.006Z,85488.50
2023-04-27T12:53:34.046Z,85405.38
2023-04-27T12:56:02.225Z,85521.06
2023-04-27T12:58:36.853Z,85446.72
2023-04-27T13:01:04.002Z,85506.16
2023-04-27T13:03:31.388Z,85447.59
2023-04-27T13:05:58.495Z,85538.72
2023-04-27T13:08:25.808Z,85506.00
2023-04-27T13:10:53.540Z,85548.34
2023-04-27T13:13:20.756Z,85407.03
2023-04-27T13:15:55.211Z,85479.59
2023-04-27T13:18:22.824Z,85536.22
2023-04-27T13:20:50.019Z,85520.47
2023-04-27T13:23:18.202Z,85454.81
2023-04-27T13:25:45.227Z,85544.09
2023-04-27T13:28:12.779Z,85317.00
2023-04-27T13:30:39.892Z,85513.69
2023-04-27T13:33:21.221Z,85484.03
2023-04-27T13:35:51.127Z,85529.22
2023-04-27T13:38:18.305Z,85562.41
2023-04-27T13:40:45.501Z,85562.41
2023-04-27T13:43:12.400Z,85549.03
2023-04-27T13:45:40.252Z,85448.84
2023-04-27T13:48:07.647Z,85489.28
2023-04-27T13:50:34.864Z,85557.59
2023-04-27T13:53:02.237Z,85531.88
2023-04-27T13:55:29.372Z,85480.38
2023-04-27T13:57:57.571Z,85555.69
2023-04-27T14:00:25.582Z,85577.88
2023-04-27T14:02:53.213Z,85508.16
2023-04-27T14:05:20.526Z,85455.25
2023-04-27T14:07:48.039Z,85557.63
2023-04-27T14:10:15.357Z,85557.59
2023-04-27T14:12:42.558Z,85554.84
2023-04-27T14:15:10.052Z,85522.94
2023-04-27T14:17:37.033Z,85496.19
2023-04-27T14:20:07.094Z,85538.84
2023-04-27T14:22:35.365Z,85523.31
2023-04-27T14:25:02.833Z,85565.16
2023-04-27T14:27:29.903Z,85403.84
2023-04-27T14:29:56.924Z,85384.91
2023-04-27T14:32:26.686Z,85564.00
2023-04-27T14:34:54.480Z,85602.97
2023-04-27T14:37:21.549Z,85556.09
2023-04-27T14:39:48.665Z,85586.09
2023-04-27T14:42:16.527Z,85405.81
2023-04-27T14:44:43.586Z,85579.38
2023-04-27T14:47:10.869Z,85499.34
2023-04-27T14:49:38.273Z,85621.97
2023-04-27T14:52:06.849Z,85587.66
2023-04-27T14:54:35.807Z,85545.25
2023-04-27T14:57:07.069Z,85374.25
2023-04-27T14:59:34.643Z,85514.50
2023-04-27T15:02:02.448Z,85558.22
2023-04-27T15:04:29.637Z,85496.66
2023-04-27T15:06:57.199Z,85475.47
2023-04-27T15:09:24.206Z,85364.72
2023-04-27T15:11:51.377Z,85543.81
2023-04-27T15:14:18.517Z,85606.00
2023-04-27T15:16:45.515Z,85540.59
2023-04-27T15:19:13.394Z,85463.84
2023-04-27T15:21:40.809Z,85359.34
2023-04-27T15:24:07.835Z,85593.41
2023-04-27T15:26:34.966Z,85537.09
2023-04-27T15:29:02.844Z,85468.69
2023-04-27T15:31:30.167Z,85597.31
2023-04-27T15:33:57.423Z,85279.19
2023-04-27T15:36:27.040Z,85416.16
2023-04-27T15:38:54.716Z,85582.47
2023-04-27T15:41:22.260Z,85497.53
2023-04-27T15:43:50.784Z,85454.53
2023-04-27T15:46:20.036Z,85588.03
2023-04-27T15:48:47.055Z,85625.06
2023-04-27T15:51:14.028Z,85541.56
2023-04-27T15:53:41.062Z,85603.41
2023-04-27T15:56:08.208Z,85571.81
2023-04-27T15:58:35.163Z,85619.00
2023-04-27T16:01:02.700Z,85604.63
2023-04-27T16:03:30.890Z,85598.50
2023-04-27T16:06:04.192Z,85562.34
2023-04-27T16:08:32.389Z,85651.66
2023-04-27T16:11:00.867Z,85635.41
2023-04-27T16:13:28.658Z,85597.56
2023-04-27T16:15:56.055Z,85654.53
2023-04-27T16:18:23.602Z,85658.75
2023-04-27T16:20:50.693Z,85536.78
2023-04-27T16:23:20.512Z,85662.19
2023-04-27T16:25:48.420Z,85641.78
2023-04-27T16:28:16.717Z,85601.34
2023-04-27T16:30:43.744Z,85649.97
2023-04-27T16:33:10.933Z,85629.34
2023-04-27T16:35:38.201Z,85638.22
2023-04-27T16:38:06.172Z,85637.53
2023-04-27T16:40:34.201Z,85638.31
2023-04-27T16:43:01.389Z,85646.44
2023-04-27T16:45:28.815Z,85636.25
2023-04-27T16:47:55.954Z,85663.06
2023-04-27T16:50:23.011Z,85653.59
2023-04-27T16:52:50.187Z,85649.47
2023-04-27T16:55:17.548Z,85568.63
2023-04-27T16:57:46.441Z,85694.78
2023-04-27T17:00:14.585Z,85593.31
2023-04-27T17:02:43.739Z,85637.88
2023-04-27T17:05:11.352Z,85620.03
2023-04-27T17:07:38.432Z,85697.47
2023-04-27T17:10:08.427Z,85664.53
2023-04-27T17:12:39.088Z,85685.13
2023-04-27T17:15:07.216Z,85681.06
2023-04-27T17:17:35.153Z,85710.56
2023-04-27T17:20:02.380Z,85660.53
2023-04-27T17:22:30.168Z,85708.47
2023-04-27T17:24:57.729Z,85720.22
2023-04-27T17:27:25.011Z,85723.69
2023-04-27T17:29:54.026Z,85696.31
2023-04-27T17:32:21.040Z,85696.28
2023-04-27T17:34:48.012Z,85667.50
2023-04-27T17:37:15.055Z,85638.69
2023-04-27T17:39:42.058Z,85704.38
2023-04-27T17:42:12.543Z,85666.75
2023-04-27T17:44:41.696Z,85670.31
2023-04-27T17:47:09.358Z,85730.63
2023-04-27T17:49:36.524Z,85729.97
2023-04-27T17:52:03.883Z,85690.91
2023-04-27T17:54:31.032Z,85723.84
2023-04-27T17:56:58.144Z,85722.56
2023-04-27T17:59:25.191Z,85734.97
2023-04-27T18:01:52.831Z,85700.63
2023-04-27T18:04:21.373Z,85756.97
2023-04-27T18:06:48.453Z,85752.88
2023-04-27T18:09:16.289Z,85708.97
2023-04-27T18:11:43.549Z,85766.66
2023-04-27T18:14:10.592Z,85739.88
2023-04-27T18:16:37.732Z,85695.28
2023-04-27T18:19:04.736Z,85768.03
2023-04-27T18:21:31.834Z,85772.16
2023-04-27T18:23:58.882Z,85726.84
2023-04-27T18:26:26.804Z,85781.13
2023-04-27T18:28:53.965Z,85781.78
2023-04-27T18:31:21.137Z,85779.06
2023-04-27T18:33:48.183Z,85753.00
2023-04-27T18:36:15.227Z,85786.63
2023-04-27T18:38:42.251Z,85729.66
2023-04-27T18:41:09.529Z,85801.06
2023-04-27T18:43:39.109Z,85748.19
2023-04-27T18:46:06.345Z,85792.84
2023-04-27T18:48:39.538Z,85760.59
2023-04-27T18:51:06.558Z,85782.59
2023-04-27T18:53:33.730Z,85791.50
2023-04-27T18:56:03.879Z,85760.59
2023-04-27T18:58:33.452Z,85764.75
2023-04-27T19:01:00.548Z,85744.88
2023-04-27T19:03:27.928Z,85821.13
2023-04-27T19:05:55.070Z,85784.00
2023-04-27T19:08:21.995Z,85764.09
2023-04-27T19:10:51.120Z,85709.16
2023-04-27T19:13:18.107Z,85818.38
2023-04-27T19:15:45.164Z,85803.94
2023-04-27T19:18:15.193Z,85813.66
2023-04-27T19:20:42.353Z,85814.31
2023-04-27T19:23:12.687Z,85776.53
2023-04-27T19:25:40.636Z,85798.53
2023-04-27T19:28:08.059Z,85830.16
2023-04-27T19:30:38.021Z,85815.06
2023-04-27T19:33:05.222Z,85832.25
2023-04-27T19:35:32.246Z,85841.91
2023-04-27T19:37:59.290Z,85799.94
2023-04-27T19:40:26.384Z,85799.97
2023-04-27T19:42:53.437Z,85782.78
2023-04-27T19:45:22.311Z,85823.34
2023-04-27T19:47:49.933Z,85835.69
2023-04-27T19:50:17.781Z,85802.75
2023-04-27T19:52:55.303Z,85718.91
2023-04-27T19:55:22.417Z,85773.22
2023-04-27T19:57:49.431Z,85757.41
2023-04-27T20:00:16.664Z,85845.38
2023-04-27T20:02:44.032Z,85802.06
2023-04-27T20:05:11.806Z,85840.59
2023-04-27T20:07:38.971Z,85681.81
2023-04-27T20:10:08.826Z,85844.69
2023-04-27T20:15:06.717Z,85787.59
2023-04-27T20:17:34.288Z,85810.28
2023-04-27T20:20:01.422Z,85795.16
2023-04-27T20:22:28.767Z,85808.25
2023-04-27T20:24:59.399Z,85828.88
2023-04-27T20:27:26.484Z,85837.13
2023-04-27T20:29:53.464Z,85741.56
2023-04-27T20:32:20.980Z,85776.63
2023-04-27T20:34:47.924Z,85799.31
2023-04-27T20:37:17.200Z,85836.44
2023-04-27T20:39:44.143Z,85811.00
2023-04-27T20:42:12.739Z,85822.72
2023-04-27T20:44:39.845Z,85834.41
2023-04-27T20:47:06.996Z,85783.53
2023-04-27T20:49:35.417Z,85839.91
2023-04-27T20:52:03.263Z,85747.78
2023-04-27T20:54:33.402Z,85764.28
2023-04-27T20:57:03.932Z,85739.53
2023-04-27T20:59:31.157Z,85819.28
2023-04-27T21:01:58.134Z,85796.59
2023-04-27T21:04:25.330Z,85739.47
2023-04-27T21:06:52.908Z,85846.81
2023-04-27T21:09:20.029Z,85806.22
2023-04-27T21:11:47.041Z,85852.31
2023-04-27T21:14:14.311Z,85857.09
2023-04-27T21:16:41.596Z,85826.81
2023-04-27T21:19:14.907Z,85832.34
2023-04-27T21:21:42.120Z,85810.31
2023-04-27T21:24:11.232Z,85848.84
2023-04-27T21:26:38.391Z,85811.00
2023-04-27T21:29:06.111Z,85808.25
2023-04-27T21:31:33.798Z,85863.97
2023-04-27T21:34:01.296Z,85828.88
2023-04-27T21:36:28.954Z,85785.44
2023-04-27T21:38:56.144Z,85835.72
2023-04-27T21:41:23.107Z,85846.06
2023-04-27T21:43:51.297Z,85823.31
2023-04-27T21:46:21.345Z,85863.22
2023-04-27T21:48:51.011Z,85675.41
2023-04-27T21:51:17.992Z,85835.63
2023-04-27T21:53:44.918Z,85823.22
2023-04-27T21:56:11.916Z,85777.81
2023-04-27T21:58:38.869Z,85848.00
2023-04-27T22:01:06.124Z,85861.81
2023-04-27T22:03:33.542Z,85859.06
2023-04-27T22:06:04.590Z,85810.81
2023-04-27T22:08:31.871Z,85810.75
2023-04-27T22:10:58.890Z,85876.91
2023-04-27T22:13:26.046Z,85853.44
2023-04-27T22:15:53.016Z,85872.75
2023-04-27T22:18:20.195Z,85874.16
2023-04-27T22:20:47.491Z,85852.88
2023-04-27T22:23:14.564Z,85802.56
2023-04-27T22:25:43.335Z,85874.19
2023-04-27T22:28:11.176Z,85871.44
2023-04-27T22:30:39.012Z,85823.84
2023-04-27T22:33:06.497Z,85807.94
2023-04-27T22:35:34.307Z,85875.41
2023-04-27T22:38:01.323Z,85867.13
2023-04-27T22:40:28.400Z,85845.84
2023-04-27T22:42:55.619Z,85868.56
2023-04-27T22:45:23.551Z,85847.25
2023-04-27T22:47:51.101Z,85862.38
2023-04-27T22:50:18.637Z,85841.72
2023-04-27T22:52:45.638Z,85850.72
2023-04-27T22:55:13.286Z,85847.97
2023-04-27T22:57:41.938Z,85839.63
2023-04-27T23:00:11.729Z,85821.75
2023-04-27T23:02:43.389Z,85766.66
2023-04-27T23:05:13.496Z,85840.31
2023-04-27T23:07:44.081Z,85780.44
2023-04-27T23:10:11.483Z,85803.13
2023-04-27T23:12:41.091Z,85846.47
2023-04-27T23:15:09.572Z,85757.69
2023-04-27T23:17:37.050Z,85827.22
2023-04-27T23:20:20.377Z,85801.06
2023-04-27T23:22:54.012Z,85835.47
2023-04-27T23:25:24.179Z,85819.69
2023-04-27T23:27:52.408Z,85831.97
2023-04-27T23:30:20.636Z,85798.94
2023-04-27T23:32:47.606Z,85751.41
2023-04-27T23:35:15.032Z,85825.75
2023-04-27T23:37:42.059Z,85791.31
2023-04-27T23:40:09.465Z,85758.81
2023-04-27T23:42:36.961Z,85800.22
2023-04-27T23:45:04.398Z,85789.94
2023-04-27T23:47:33.976Z,85772.69
2023-04-27T23:50:02.510Z,85817.41
2023-04-27T23:52:29.565Z,85845.00
2023-04-27T23:54:58.137Z,85847.75
2023-04-27T23:57:25.361Z,85807.75
2023-04-27T23:59:52.414Z,85738.84
